• Join FlightAware (Why Join?)
  • Login
  • US Flag GB Flag 
23:33 EDT


 

Airport Tracker/Info


-or-


 

Live Flight TrackerFlight Track Log ✈ GPD590 ✈ 01-Nov-2013 ✈ TJSJ / SJU - TKPN / NEV

Flight Track Log - Related Links

Times and Time Zones

All times are in EDT time to prevent confusion due to time zone crossing. See the GPD590 flight status page for this flight to view local times or setup timezone preferences in your user account.

Time Position Orientation Groundspeed Altitude Reporting Facility
EDT Latitude Longitude Course Direction KTS MPH feet Rate Location/Type
17:58 18.4500 -65.9667 62° Northeast 110 127 1,400  Level San Juan Center
17:59 18.4667 -65.9333 62° Northeast 150 173 2,600 1,020 Climbing San Juan Center
18:00 18.4833 -65.9000 62° Northeast 160 184 3,500 960 Climbing San Juan Center
18:01 18.5167 -65.8500 55° Northeast 180 207 4,600 1,020 Climbing San Juan Center
18:02 18.5000 -65.8000 109° East 180 207 5,600 960 Climbing San Juan Center
18:03 18.4833 -65.7500 109° East 190 219 6,600 900 Climbing San Juan Center
18:04 18.4667 -65.7000 109° East 180 207 7,500 960 Climbing San Juan Center
18:05 18.4667 -65.6500 90° East 180 207 8,600 1,020 Climbing San Juan Center
18:06 18.4667 -65.5833 90° East 180 207 9,600 960 Climbing San Juan Center
18:07 18.4333 -65.5500 137° Southeast 180 207 10,600 960 Climbing San Juan Center
18:08 18.4167 -65.5000 109° East 180 207 11,600 900 Climbing San Juan Center
18:09 18.3833 -65.4500 125° Southeast 180 207 12,500 960 Climbing San Juan Center
18:10 18.3667 -65.4000 109° East 190 219 13,600 960 Climbing San Juan Center
18:11 18.3333 -65.3500 125° Southeast 190 219 14,500 900 Climbing San Juan Center
18:12 18.3167 -65.3000 109° East 200 230 15,500 960 Climbing San Juan Center
18:13 18.2833 -65.2500 125° Southeast 200 230 16,500 960 Climbing San Juan Center
18:14 18.2500 -65.1833 118° Southeast 200 230 17,500 960 Climbing San Juan Center
18:15 18.2333 -65.1333 109° East 210 242 18,500 900 Climbing San Juan Center
18:16 18.2000 -65.0833 125° Southeast 210 242 19,400 900 Climbing San Juan Center
18:17 18.1833 -65.0333 109° East 200 230 20,400 780 Climbing San Juan Center
18:19 18.1500 -64.9833 125° Southeast 200 230 21,000 240 Climbing San Juan Center
18:20 18.1167 -64.9167 118° Southeast 220 253 21,000  Level San Juan Center
18:21 18.1000 -64.8667 109° East 240 276 21,000  Level San Juan Center
18:22 18.0667 -64.8000 118° Southeast 240 276 21,000  Level San Juan Center
18:23 18.0333 -64.7333 118° Southeast 240 276 21,000  Level San Juan Center
18:24 18.0000 -64.6667 118° Southeast 240 276 21,000  Level San Juan Center
18:25 17.9667 -64.6167 125° Southeast 240 276 21,000  Level San Juan Center
18:26 17.9333 -64.5500 118° Southeast 240 276 21,000  Level San Juan Center
18:27 17.9167 -64.4833 105° East 230 265 21,000  Level San Juan Center
18:28 17.8833 -64.4333 125° Southeast 240 276 21,000  Level San Juan Center
18:29 17.8500 -64.3667 118° Southeast 240 276 21,000  Level San Juan Center
18:30 17.8167 -64.3000 118° Southeast 240 276 21,000  Level San Juan Center
18:31 17.7833 -64.2500 125° Southeast 240 276 21,000  Level San Juan Center
18:32 17.7500 -64.1833 118° Southeast 240 276 21,000  Level San Juan Center
18:33 17.7167 -64.1167 118° Southeast 240 276 21,000 -60 Level San Juan Center
18:34 17.7000 -64.0667 109° East 230 265 20,900 -480 Descending San Juan Center
18:35 17.6667 -64.0000 118° Southeast 260 299 20,100 -960 Descending San Juan Center
18:36 17.6167 -63.9167 122° Southeast 270 311 19,000 -1,200 Descending San Juan Center
18:37 17.5833 -63.8500 118° Southeast 280 322 17,800 -1,200 Descending San Juan Center
18:38 17.5500 -63.7667 113° Southeast 280 322 16,600 -1,140 Descending San Juan Center
18:39 17.5167 -63.7000 118° Southeast 280 322 15,600 -1,140 Descending San Juan Center
18:40 17.4833 -63.6333 118° Southeast 280 322 14,400 -1,200 Descending San Juan Center
18:41 17.4667 -63.5500 102° East 280 322 13,300 -1,200 Descending San Juan Center
18:42 17.4500 -63.4667 102° East 280 322 12,100 -1,140 Descending San Juan Center
18:43 17.4333 -63.4000 105° East 280 322 11,100 -1,200 Descending San Juan Center
18:45 17.4000 -63.2333 102° East 260 299 8,600 -1,260 Descending San Juan Center
18:46 17.3833 -63.1667 105° East 270 311 7,400 -900 Descending San Juan Center
18:48 17.3500 -63.0333 105° East 250 288 6,000 -720 Descending San Juan Center
18:51 17.3188 -62.9179 103° East  Level FlightAware Approximate
18:58 17.2057 -62.5899 113° Southeast  Level Estimated
18:59 17.2057 -62.5899 113° Southeast  Level Estimated
19:00 17.2057 -62.5899 113° Southeast  Level Estimated
19:01 17.2057 -62.5899 113° Southeast  Level Estimated
19:02 17.2057 -62.5899 113° Southeast  Level Estimated
19:03 17.2057 -62.5899 113° Southeast  Level Estimated
19:04 17.2057 -62.5899 113° Southeast  Level Estimated
19:05 17.2057 -62.5899 113° Southeast  Level Estimated
19:06 17.2057 -62.5899 113° Southeast  Level Estimated
19:07 17.2057 -62.5899 113° Southeast  Level Estimated
19:08 17.2057 -62.5899 113° Southeast  Level Estimated
19:09 17.2057 -62.5899 113° Southeast  Level Estimated
19:10 17.2057 -62.5899 113° Southeast  Level Estimated
19:11 17.2057 -62.5899 113° Southeast  Level Estimated
19:12 17.2057 -62.5899 113° Southeast  Level Estimated
19:13 17.2057 -62.5899 113° Southeast  Level Estimated
19:14 17.2057 -62.5899 113° Southeast  Level Estimated